Sonic Adventure (DX): Time Rankings

Records: Times | Rings | Scores | Races | Bosses | Freestyle
Leaders: Times | Rings | Scores | Races | Bosses | Freestyle | Overall
Rank Player Percent Points Date
1 Sonicspeedruner 98.9% 53 07-01-15
2 Gamepro011 98.6% 72 07-01-15
3 Jawzun 95.9% 212 07-01-15
4 Dashjump 93.6% 334 07-01-15
5 DarkPolarNight 92.9% 370 07-01-15
6 THC98 91.7% 431 07-01-15
7 F-Man 91.3% 456 07-01-15
8 ike6252 90.1% 519 07-01-15
9 Avento128bits 89.9% 528 07-01-15
10 francisco 89.6% 543 07-01-15
11 DarkspinesSonic 89.3% 560 07-01-15
12 Marth 89.1% 569 07-01-15
13 frankoredstrato 87.8% 636 07-01-15
14 drminus 85.0% 785 07-01-15
15 Paragod 84.7% 802 07-01-15
16 HyperSonic7701 84.6% 804 07-01-15
17 chainchumper 84.5% 813 07-01-15
18 InferSaime 81.7% 960 07-01-15
19 TheRealShadnic 81.5% 967 07-01-15
20 Stefan 80.0% 1046 07-01-15
21 Redd 79.6% 1071 07-01-15
22 PfoSonic 79.4% 1079 07-01-15
23 Coolfansonic 77.7% 1166 07-01-15
24 bertin 77.7% 1170 07-01-15
25 yoshifan 77.2% 1197 07-01-15
26 xXMegaManXx 76.8% 1216 07-01-15
27 Dave Cramer 75.4% 1287 07-01-15
28 RPGnutter 74.9% 1315 07-01-15
29 Cybrax 73.4% 1396 07-01-15
30 sonicam 73.3% 1400 07-01-15
31 Ring Rush 70.4% 1550 07-01-15
32 mike89 69.6% 1591 07-01-15
33 NintenDan 69.4% 1604 07-01-15
34 SkyLights 65.5% 1810 07-01-15
35 Combo 64.0% 1886 07-01-15
36 SADXTryHard 61.9% 1999 07-01-15
37 P1 Pause 61.2% 2035 07-01-15
38 Nimrod 60.3% 2083 07-01-15
39 a_moustache 60.1% 2092 07-01-15
40 Groudon199 59.2% 2137 07-01-15
41 Game_Complete 59.1% 2145 07-01-15
42 Shadow Jacky 58.5% 2175 07-01-15
43 Dawid8404 58.4% 2181 07-01-15
44 VMU Player Banned 57.7% 2217 07-01-15
45 Thorn 57.2% 2245 07-01-15
46 The Knuckles Chao 56.0% 2306 07-01-15
47 SB737 55.9% 2312 07-01-15
48 Parax 55.9% 2315 07-01-15
49 Chao_Fan 55.6% 2326 07-01-15
50 SadisticMystic 55.6% 2330 07-01-15
51 KinkyCadence 55.0% 2361 07-01-15
52 LittleBigness 54.9% 2363 07-01-15
53 mauserman 54.8% 2371 07-01-15
54 Mastakirby 54.8% 2373 07-01-15
55 Psyknux 54.7% 2376 07-01-15
56 OmegaDJ 54.7% 2378 07-01-15
57 magnum12 53.8% 2424 07-01-15
58 Auriman1 53.7% 2428 07-01-15
59 Turbos 53.3% 2451 07-01-15
60 GreatStar 52.8% 2476 07-01-15
61 GerbilSoft 52.8% 2477 07-01-15
62 Webber3000 52.0% 2520 07-01-15
63 Hipertails12 51.6% 2541 07-01-15
64 James_Bertolli 48.6% 2696 07-01-15
65 Cream147 48.3% 2714 07-01-15
66 Skylace 47.8% 2736 07-01-15
67 Diamond 47.6% 2746 07-01-15
68 welldooder64 47.6% 2749 07-01-15
69 Omega Rafael Santos 47.5% 2753 07-01-15
70 Quartz 47.2% 2769 07-01-15
71 Psymar 47.1% 2773 07-01-15
72 SonicWinDX 46.8% 2790 07-01-15
73 teamblackarms 45.8% 2842 07-01-15
74 buddychaos0415 45.2% 2874 07-01-15
75 SilverSonic 44.8% 2897 07-01-15
76 WeegeeZV 44.1% 2930 07-01-15
77 Andrea Ritsu 44.1% 2931 07-01-15
78 itsPersonnal 44.1% 2932 07-01-15
79 SilvertheAlmighty 43.8% 2948 07-01-15
80 metanightmare22 42.9% 2994 07-01-15
81 lordmetalsonic 40.8% 3106 07-01-15
82 Arch 40.4% 3124 07-01-15
83 Termon 40.2% 3137 07-01-15
84 videogamemaster777 39.6% 3171 07-01-15
85 supersonicfan 39.2% 3189 07-01-15
86 Kanimayo_Jp 39.0% 3202 07-01-15
87 Drakodan 38.9% 3205 07-01-15
88 paulie9990 38.4% 3230 07-01-15
89 LilZero 38.3% 3236 07-01-15
90 FuzZerd 38.0% 3253 07-01-15
91 AxlThunder 37.8% 3263 07-01-15
92 Don 37.4% 3285 07-01-15
93 eggFL 37.3% 3291 07-01-15
94 Fr3nZy 36.0% 3360 07-01-15
95 Siavash Tazari 35.8% 3366 07-01-15
96 Cod4Scopes 35.0% 3408 07-01-15
97 f0rever_zer0 34.7% 3425 07-01-15
98 Austinf 34.2% 3454 07-01-15
99 Cyan Ryan 34.1% 3458 07-01-15
100 supersonic465 33.9% 3468 07-01-15
101 LinksDarkArrows 33.7% 3476 07-01-15
102 Therio 33.7% 3479 07-01-15
103 danieldude 33.2% 3505 07-01-15
104 elecmouse101 32.8% 3525 07-01-15
105 Staf 32.6% 3535 07-01-15
106 MiStEr_ShAoLiN 32.4% 3546 07-01-15
107 BrokenArthritis 32.3% 3550 07-01-15
108 Xia 31.3% 3605 07-01-15
109 welshmoose05 30.8% 3630 07-01-15
110 OddCook 29.9% 3676 07-01-15
111 Mcshuggets 29.8% 3681 07-01-15
112 The Great Lord Mick 29.6% 3691 07-01-15
113 Maxinfamily 29.4% 3703 07-01-15
114 joecoolgames 29.2% 3714 07-01-15
115 Aitamen 29.2% 3717 07-01-15
116 videogamer1014 29.0% 3727 07-01-15
117 imazor017 28.9% 3732 07-01-15
117 Matt_TY 28.9% 3732 07-01-15
119 dabestgamer 28.6% 3744 07-01-15
120 SuperSonic101 27.6% 3796 07-01-15
121 Hunters13 27.3% 3813 07-01-15
122 Shadowthegreat 27.3% 3816 07-01-15
123 superjupi 27.2% 3817 07-01-15
124 Rolken 26.7% 3844 07-01-15
125 SaviourDC 26.4% 3860 07-01-15
126 iarebored 26.4% 3861 07-01-15
127 sonamyfan666 26.1% 3878 07-01-15
128 Spinballwizard 25.9% 3890 07-01-15
129 SonicKnuckles 25.7% 3898 07-01-15
130 adf 24.8% 3948 07-01-15
130 EngiNerd 24.8% 3948 07-01-15
132 Megaman EXE565 24.0% 3986 07-01-15
133 The T 23.7% 4003 07-01-15
134 Platformer 23.2% 4027 07-01-15
135 Pokemonmaster888 23.1% 4037 07-01-15
135 Sonic Singularity 23.1% 4037 07-01-15
137 SeaWolf 23.0% 4041 07-01-15
138 Swift Hobo 22.5% 4066 07-01-15
139 timpkmn89 22.5% 4068 07-01-15
140 Rickyman48 22.1% 4088 07-01-15
141 Sondow 21.7% 4106 07-01-15
142 FoxBoy 21.2% 4133 07-01-15
143 TFEC Headshot 21.0% 4143 07-01-15
144 KitsuneYamaro 21.0% 4144 07-01-15
145 Jerzia 20.9% 4150 07-01-15
146 Kogen Player Banned 20.5% 4171 07-01-15
147 Starlight Sable 19.9% 4201 07-01-15
148 IsisDazs 19.5% 4223 07-01-15
149 HyperSonic64 19.2% 4242 07-01-15
150 crazy1993 18.8% 4260 07-01-15
151 andres430 18.5% 4274 07-01-15
152 SonicU260 17.5% 4330 07-01-15
153 SonicAD 17.3% 4337 07-01-15
154 sonicd5 17.2% 4342 07-01-15
155 MPit08 17.2% 4346 07-01-15
156 iSonicKid2K 16.5% 4379 07-01-15
157 dShadow 16.5% 4381 07-01-15
158 Miles9999 16.0% 4405 07-01-15
159 Chawkk 15.9% 4411 07-01-15
160 Cutiefox 15.9% 4414 07-01-15
161 BigAL49 15.9% 4415 07-01-15
162 Monkeh 15.7% 4425 07-01-15
163 DaDude 15.3% 4444 07-01-15
163 ethmar 15.3% 4444 07-01-15
165 Drflash55 15.0% 4458 07-01-15
166 Yish 14.7% 4474 07-01-15
167 Bass 14.4% 4490 07-01-15
168 neaolas 14.4% 4491 07-01-15
169 UninspiredUsername 14.2% 4500 07-01-15
170 Cruizer 14.2% 4501 07-01-15
171 superiorsonic 14.2% 4503 07-01-15
172 zapp 14.0% 4510 07-01-15
173 gamefreak1292 13.9% 4520 07-01-15
174 Cooljay 13.1% 4562 07-01-15
175 Chaos_Overlord 12.8% 4573 07-01-15
176 Valfore 12.4% 4598 07-01-15
177 GarnetPrincess 12.0% 4617 07-01-15
177 ShinigamiMachine 12.0% 4617 07-01-15
179 soniccoloursunleashed 11.7% 4631 07-01-15
180 Sonicsuperstar1 11.5% 4644 07-01-15
181 FocusSight64 11.0% 4669 07-01-15
182 Werey 10.9% 4675 07-01-15
183 booo95 10.7% 4684 07-01-15
183 SirTobbii 10.7% 4684 07-01-15
185 Mo Player Banned 10.5% 4694 07-01-15
186 sonicspeed 10.4% 4703 07-01-15
187 Venick409 9.9% 4727 07-01-15
188 Sithwarrior26 9.6% 4745 07-01-15
189 ingx24 9.2% 4765 07-01-15
190 CyberShadow 9.0% 4774 07-01-15
191 Fozer 8.7% 4792 07-01-15
192 Colomb_30 8.4% 4806 07-01-15
193 Regano1000 8.3% 4810 07-01-15
194 1stKirbyever 8.0% 4826 07-01-15
195 Brian_pso 7.7% 4843 07-01-15
196 nuckrieg 7.6% 4846 07-01-15
197 Th4tN1nj4Turtl3 7.4% 4858 07-01-15
198 douglas 7.4% 4859 07-01-15
199 TakaRikka 7.4% 4860 07-01-15
200 Zip 7.2% 4870 07-01-15
201 Mariosonic15 7.0% 4879 07-01-15
202 wheatrich 6.9% 4887 07-01-15
203 MStitomix 6.7% 4894 07-01-15
204 ieatatsonic 6.6% 4901 07-01-15
205 HermitHelmet 6.6% 4902 07-01-15
206 niscool 6.4% 4911 07-01-15
207 Cort_pso 6.4% 4912 07-01-15
208 Got4n 6.4% 4913 07-01-15
209 Triseena 6.3% 4918 07-01-15
210 Jose_15 6.1% 4928 07-01-15
211 Artie 5.9% 4939 07-01-15
212 SuperSonicfan9595 5.8% 4942 07-01-15
213 BlankTH 5.8% 4944 07-01-15
214 HHNNBBHHN 5.6% 4956 07-01-15
215 Ace747 5.5% 4958 07-01-15
216 Richied 5.4% 4966 07-01-15
217 Paixii 5.2% 4972 07-01-15
218 FSSRandomvids 4.9% 4988 07-01-15
219 BallzeH 4.9% 4990 07-01-15
220 slade23 4.9% 4991 07-01-15
221 ArcticDragon 4.8% 4993 07-01-15
222 PsyBorg 4.8% 4995 07-01-15
223 Jamixesa 4.8% 4997 07-01-15
223 Mankster101 4.8% 4997 07-01-15
225 BecauseWarAnvil 4.7% 5000 07-01-15
226 Crydio 4.6% 5005 07-01-15
227 Nickson98 4.6% 5008 07-01-15
228 TheUltraBlur 4.4% 5015 07-01-15
229 ReuelBrony 4.4% 5018 07-01-15
230 stanski 4.3% 5024 07-01-15
231 MarewBFN 4.2% 5027 07-01-15
232 tal39h 4.0% 5036 07-01-15
233 Blue Infamy 4.0% 5040 07-01-15
234 knuckles_sonic8 3.9% 5041 07-01-15
234 p0ker 3.9% 5041 07-01-15
236 ErrortheCucco 3.8% 5050 07-01-15
237 Rikum22 3.7% 5053 07-01-15
238 sonic1001 3.6% 5061 07-01-15
239 TheChaosEmeraIds 3.5% 5063 07-01-15
240 syco1098 3.4% 5068 07-01-15
241 AJSIV 3.4% 5069 07-01-15
242 Sonic the Hedgehod16 3.3% 5072 07-01-15
243 sonicfan9 3.3% 5074 07-01-15
244 Calfd 3.2% 5079 07-01-15
245 themachoman202 2.9% 5093 07-01-15
246 RealProjectMVP1 PSN 2.9% 5095 07-01-15
247 MK 2.8% 5098 07-01-15
248 BlackArmsShadow 2.8% 5103 07-01-15
248 Fivavoa 2.8% 5103 07-01-15
250 Mr. Jones 2.7% 5104 07-01-15
251 djmat 2.7% 5105 07-01-15
252 arcfx1985 2.7% 5106 07-01-15
252 ptorflaxendrosis 2.7% 5106 07-01-15
254 FlandreScarlet9999vr 2.6% 5111 07-01-15
254 Sonique Hedgehog 2.6% 5111 07-01-15
256 Zeldocto 2.5% 5116 07-01-15
257 KaM Mark MaK 2.4% 5120 07-01-15
258 BeeAwwb 2.4% 5123 07-01-15
259 ShadouZaHejjihoggu 2.3% 5127 07-01-15
260 darkstarblaze 2.1% 5135 07-01-15
261 darkersupershadic 2.1% 5136 07-01-15
262 SpiritDragon1995 2.1% 5137 07-01-15
263 sonic29887 2.1% 5139 07-01-15
264 Grady219 2.0% 5142 07-01-15
264 Sarger001 2.0% 5142 07-01-15
266 Jawaah 2.0% 5145 07-01-15
267 shadowblast63 Player Banned 1.9% 5147 07-01-15
268 Antek 1.8% 5151 07-01-15
269 Klaus 1.8% 5153 07-01-15
270 BioShadow 1.7% 5158 07-01-15
271 SkyBon 1.4% 5172 07-01-15
272 Shanekilz 1.4% 5174 07-01-15
273 isaihtb11 1.3% 5178 07-01-15
274 OhNoes! 1.3% 5179 07-01-15
275 zaktu40 1.3% 5181 07-01-15
276 S-MS32X-S 1.2% 5183 07-01-15
277 gaara1234 1.2% 5184 07-01-15
278 MastaToken 1.1% 5191 07-01-15
279 Mister_Slick 1.0% 5194 07-01-15
280 Sonic06Fan 1.0% 5196 07-01-15
281 Rush Hero 0.9% 5198 07-01-15
282 SonicMega167 0.9% 5202 07-01-15
283 oTaiIilLsS 0.8% 5204 07-01-15
284 gamed00d 0.8% 5205 07-01-15
284 SilverK 0.8% 5205 07-01-15
286 Egor305 0.7% 5213 07-01-15
287 Burningskull123 0.5% 5221 07-01-15
288 Heroes_Hater 0.5% 5222 07-01-15
289 Sonicontherun 0.3% 5230 07-01-15
290 antiwwe 0.2% 5236 07-01-15
291 Iwannabelink 0.2% 5239 07-01-15
292 Genuine Hedgehog 0.1% 5240 07-01-15
293 dragondragon18 0.1% 5243 07-01-15
294 SonicK100 0.1% 5244 07-01-15
295 Tyrouble 0.0% 5249 07-01-15
296 LancexExWx 0.0% 5250 07-01-15
296 neji_hyuuga 0.0% 5250 07-01-15
296 Over 0.0% 5250 07-01-15
296 sdj6707 Player Banned 0.0% 5250 07-01-15
296 Tran Sonic Fan Player Banned 0.0% 5250 07-01-15

This page is using the New Data Table System. [FUTURE]

Game ID: 3 | Category ID: 1
Hits: 7,386 | Hits This Month: 5 | DB Calls: 24 | Mem Usage: 5.44 MB | Time: 0.14s | Printable

The Sonic Center v3.9
Copyright 2003-2011 by The Sonic Center Team.